sensor_id;sensor_type;location;lat;lon;timestamp;pressure;altitude;pressure_sealevel;temperature;humidity
68226;BME280;55045;49.410;11.030;2022-09-12T00:03:25;98362.41;;;11.34;100.00
68226;BME280;55045;49.410;11.030;2022-09-12T00:06:48;98363.63;;;10.89;100.00
68226;BME280;55045;49.410;11.030;2022-09-12T00:10:12;98355.22;;;10.84;100.00
68226;BME280;55045;49.410;11.030;2022-09-12T00:13:36;98356.47;;;10.75;100.00
68226;BME280;55045;49.410;11.030;2022-09-12T00:18:18;98361.34;;;10.62;100.00
68226;BME280;55045;49.410;11.030;2022-09-12T00:21:42;98363.75;;;10.67;100.00
68226;BME280;55045;49.410;11.030;2022-09-12T00:25:06;98361.63;;;10.56;100.00
68226;BME280;55045;49.410;11.030;2022-09-12T00:28:33;98363.72;;;10.48;100.00
68226;BME280;55045;49.410;11.030;2022-09-12T00:33:21;98361.53;;;10.39;100.00
68226;BME280;55045;49.410;11.030;2022-09-12T00:36:46;98356.47;;;10.36;100.00
68226;BME280;55045;49.410;11.030;2022-09-12T00:40:10;98355.81;;;10.31;100.00
68226;BME280;55045;49.410;11.030;2022-09-12T00:43:36;98366.09;;;10.34;100.00
68226;BME280;55045;49.410;11.030;2022-09-12T00:48:25;98357.03;;;10.24;100.00
68226;BME280;55045;49.410;11.030;2022-09-12T00:51:55;98355.19;;;10.05;100.00
68226;BME280;55045;49.410;11.030;2022-09-12T00:55:23;98349.75;;;10.12;100.00
68226;BME280;55045;49.410;11.030;2022-09-12T00:58:50;98345.41;;;10.12;100.00
68226;BME280;55045;49.410;11.030;2022-09-12T01:03:26;98341.38;;;10.05;100.00
68226;BME280;55045;49.410;11.030;2022-09-12T01:06:50;98343.66;;;10.13;100.00
68226;BME280;55045;49.410;11.030;2022-09-12T01:10:14;98339.78;;;10.23;100.00
68226;BME280;55045;49.410;11.030;2022-09-12T01:13:38;98331.47;;;10.15;100.00
68226;BME280;55045;49.410;11.030;2022-09-12T01:18:26;98340.31;;;10.09;100.00
68226;BME280;55045;49.410;11.030;2022-09-12T01:22:06;98327.59;;;10.25;100.00
68226;BME280;55045;49.410;11.030;2022-09-12T01:25:37;98320.66;;;9.85;100.00
68226;BME280;55045;49.410;11.030;2022-09-12T01:29:18;98330.31;;;9.81;100.00
68226;BME280;55045;49.410;11.030;2022-09-12T01:33:34;98321.03;;;9.75;100.00
68226;BME280;55045;49.410;11.030;2022-09-12T01:37:09;98318.19;;;9.81;100.00
68226;BME280;55045;49.410;11.030;2022-09-12T01:40:42;98291.75;;;9.73;100.00
68226;BME280;55045;49.410;11.030;2022-09-12T01:44:12;98319.66;;;9.87;100.00
68226;BME280;55045;49.410;11.030;2022-09-12T01:48:19;98317.53;;;9.76;100.00
68226;BME280;55045;49.410;11.030;2022-09-12T01:51:52;98297.19;;;9.88;100.00
68226;BME280;55045;49.410;11.030;2022-09-12T01:55:20;98307.56;;;9.67;100.00
68226;BME280;55045;49.410;11.030;2022-09-12T01:58:49;98307.47;;;9.69;100.00
68226;BME280;55045;49.410;11.030;2022-09-12T02:03:26;98301.53;;;9.67;100.00
68226;BME280;55045;49.410;11.030;2022-09-12T02:06:53;98304.41;;;9.61;100.00
68226;BME280;55045;49.410;11.030;2022-09-12T02:10:29;98302.34;;;9.47;100.00
68226;BME280;55045;49.410;11.030;2022-09-12T02:13:55;98301.28;;;9.52;100.00
68226;BME280;55045;49.410;11.030;2022-09-12T02:18:20;98311.72;;;9.49;100.00
68226;BME280;55045;49.410;11.030;2022-09-12T02:21:45;98305.69;;;9.50;100.00
68226;BME280;55045;49.410;11.030;2022-09-12T02:25:11;98283.13;;;9.32;100.00
68226;BME280;55045;49.410;11.030;2022-09-12T02:28:40;98299.19;;;9.40;100.00
68226;BME280;55045;49.410;11.030;2022-09-12T02:33:23;98298.22;;;9.43;100.00
68226;BME280;55045;49.410;11.030;2022-09-12T02:36:56;98284.88;;;9.10;100.00
68226;BME280;55045;49.410;11.030;2022-09-12T02:40:23;98282.72;;;9.21;100.00
68226;BME280;55045;49.410;11.030;2022-09-12T02:43:48;98282.44;;;9.27;100.00
68226;BME280;55045;49.410;11.030;2022-09-12T02:48:25;98288.75;;;9.00;100.00
68226;BME280;55045;49.410;11.030;2022-09-12T02:51:49;98276.00;;;9.37;100.00
68226;BME280;55045;49.410;11.030;2022-09-12T02:55:13;98268.03;;;9.00;100.00
68226;BME280;55045;49.410;11.030;2022-09-12T02:58:37;98220.03;;;8.71;100.00
68226;BME280;55045;49.410;11.030;2022-09-12T03:03:37;98275.66;;;9.03;100.00
68226;BME280;55045;49.410;11.030;2022-09-12T03:07:11;98292.34;;;9.80;100.00
68226;BME280;55045;49.410;11.030;2022-09-12T03:10:41;98279.56;;;9.13;100.00
68226;BME280;55045;49.410;11.030;2022-09-12T03:14:21;98277.53;;;8.99;100.00
68226;BME280;55045;49.410;11.030;2022-09-12T03:18:31;98237.94;;;8.75;100.00
68226;BME280;55045;49.410;11.030;2022-09-12T03:22:08;98268.13;;;8.97;100.00
68226;BME280;55045;49.410;11.030;2022-09-12T03:25:35;98268.50;;;8.87;100.00
68226;BME280;55045;49.410;11.030;2022-09-12T03:29:01;98266.16;;;8.81;100.00
68226;BME280;55045;49.410;11.030;2022-09-12T03:33:24;98266.94;;;8.83;100.00
68226;BME280;55045;49.410;11.030;2022-09-12T03:36:47;98272.72;;;8.90;100.00
68226;BME280;55045;49.410;11.030;2022-09-12T03:40:11;98282.28;;;9.32;100.00
68226;BME280;55045;49.410;11.030;2022-09-12T03:43:34;98277.22;;;9.07;100.00
68226;BME280;55045;49.410;11.030;2022-09-12T03:48:19;98280.78;;;9.04;100.00
68226;BME280;55045;49.410;11.030;2022-09-12T03:51:42;98287.41;;;8.89;100.00
68226;BME280;55045;49.410;11.030;2022-09-12T03:55:06;98270.28;;;8.63;100.00
68226;BME280;55045;49.410;11.030;2022-09-12T03:58:29;98279.56;;;8.69;100.00
68226;BME280;55045;49.410;11.030;2022-09-12T04:03:21;98279.66;;;8.89;100.00
68226;BME280;55045;49.410;11.030;2022-09-12T04:06:44;98278.13;;;9.06;100.00
68226;BME280;55045;49.410;11.030;2022-09-12T04:10:08;98287.13;;;8.74;100.00
68226;BME280;55045;49.410;11.030;2022-09-12T04:13:31;98273.94;;;8.81;100.00
68226;BME280;55045;49.410;11.030;2022-09-12T04:18:18;98279.03;;;8.83;100.00
68226;BME280;55045;49.410;11.030;2022-09-12T04:21:41;98287.41;;;8.89;100.00
68226;BME280;55045;49.410;11.030;2022-09-12T04:25:04;98283.31;;;8.84;100.00
68226;BME280;55045;49.410;11.030;2022-09-12T04:28:29;98283.16;;;8.65;100.00
68226;BME280;55045;49.410;11.030;2022-09-12T04:33:22;98276.38;;;8.62;100.00
68226;BME280;55045;49.410;11.030;2022-09-12T04:36:46;98289.91;;;8.69;100.00
68226;BME280;55045;49.410;11.030;2022-09-12T04:40:09;98281.91;;;8.75;100.00
68226;BME280;55045;49.410;11.030;2022-09-12T04:43:32;98295.09;;;8.91;100.00
68226;BME280;55045;49.410;11.030;2022-09-12T04:48:20;98296.72;;;8.93;100.00
68226;BME280;55045;49.410;11.030;2022-09-12T04:51:44;98293.22;;;8.94;100.00
68226;BME280;55045;49.410;11.030;2022-09-12T04:55:08;98296.56;;;9.20;100.00
68226;BME280;55045;49.410;11.030;2022-09-12T04:58:33;98288.19;;;8.68;100.00
68226;BME280;55045;49.410;11.030;2022-09-12T05:03:21;98290.22;;;8.83;100.00
68226;BME280;55045;49.410;11.030;2022-09-12T05:06:44;98304.13;;;9.03;100.00
68226;BME280;55045;49.410;11.030;2022-09-12T05:10:08;98303.44;;;8.76;100.00
68226;BME280;55045;49.410;11.030;2022-09-12T05:13:33;98308.97;;;8.88;100.00
68226;BME280;55045;49.410;11.030;2022-09-12T05:18:20;98316.56;;;8.71;100.00
68226;BME280;55045;49.410;11.030;2022-09-12T05:21:43;98310.75;;;8.64;100.00
68226;BME280;55045;49.410;11.030;2022-09-12T05:25:08;98313.97;;;8.71;100.00
68226;BME280;55045;49.410;11.030;2022-09-12T05:28:33;98318.19;;;9.17;100.00
68226;BME280;55045;49.410;11.030;2022-09-12T05:33:23;98293.03;;;8.77;100.00
68226;BME280;55045;49.410;11.030;2022-09-12T05:36:46;98300.00;;;8.75;100.00
68226;BME280;55045;49.410;11.030;2022-09-12T05:40:10;98312.03;;;8.76;100.00
68226;BME280;55045;49.410;11.030;2022-09-12T05:43:36;98312.19;;;9.17;100.00
68226;BME280;55045;49.410;11.030;2022-09-12T05:48:45;98304.59;;;8.90;100.00
68226;BME280;55045;49.410;11.030;2022-09-12T05:52:16;98331.47;;;8.86;100.00
68226;BME280;55045;49.410;11.030;2022-09-12T05:55:39;98329.72;;;8.87;100.00
68226;BME280;55045;49.410;11.030;2022-09-12T05:59:04;98330.97;;;9.00;100.00
68226;BME280;55045;49.410;11.030;2022-09-12T06:03:21;98343.16;;;9.18;100.00
68226;BME280;55045;49.410;11.030;2022-09-12T06:06:45;98314.13;;;9.12;100.00
68226;BME280;55045;49.410;11.030;2022-09-12T06:10:09;98353.09;;;9.29;100.00
68226;BME280;55045;49.410;11.030;2022-09-12T06:13:34;98355.47;;;9.35;100.00
68226;BME280;55045;49.410;11.030;2022-09-12T06:18:17;98339.03;;;9.36;100.00
68226;BME280;55045;49.410;11.030;2022-09-12T06:21:43;98341.31;;;9.44;100.00
68226;BME280;55045;49.410;11.030;2022-09-12T06:25:07;98351.53;;;9.25;100.00
68226;BME280;55045;49.410;11.030;2022-09-12T06:28:30;98347.63;;;9.15;100.00
68226;BME280;55045;49.410;11.030;2022-09-12T06:33:19;98342.84;;;9.70;100.00
68226;BME280;55045;49.410;11.030;2022-09-12T06:36:44;98340.72;;;9.37;100.00
68226;BME280;55045;49.410;11.030;2022-09-12T06:40:08;98347.19;;;9.47;100.00
68226;BME280;55045;49.410;11.030;2022-09-12T06:43:32;98347.81;;;9.54;100.00
68226;BME280;55045;49.410;11.030;2022-09-12T06:48:20;98345.53;;;9.46;100.00
68226;BME280;55045;49.410;11.030;2022-09-12T06:51:43;98306.84;;;9.64;100.00
68226;BME280;55045;49.410;11.030;2022-09-12T06:55:07;98340.06;;;9.74;100.00
68226;BME280;55045;49.410;11.030;2022-09-12T06:58:31;98346.34;;;9.47;100.00
68226;BME280;55045;49.410;11.030;2022-09-12T07:03:20;98347.53;;;9.60;100.00
68226;BME280;55045;49.410;11.030;2022-09-12T07:06:43;98321.81;;;9.98;100.00
68226;BME280;55045;49.410;11.030;2022-09-12T07:10:07;98341.69;;;9.77;100.00
68226;BME280;55045;49.410;11.030;2022-09-12T07:13:32;98356.00;;;9.86;100.00
68226;BME280;55045;49.410;11.030;2022-09-12T07:18:21;98324.25;;;10.21;100.00
68226;BME280;55045;49.410;11.030;2022-09-12T07:21:44;98348.53;;;10.59;100.00
68226;BME280;55045;49.410;11.030;2022-09-12T07:25:07;98354.97;;;10.70;100.00
68226;BME280;55045;49.410;11.030;2022-09-12T07:28:31;98345.94;;;10.59;100.00
68226;BME280;55045;49.410;11.030;2022-09-12T07:33:26;98350.44;;;10.75;100.00
68226;BME280;55045;49.410;11.030;2022-09-12T07:36:50;98351.13;;;10.59;100.00
68226;BME280;55045;49.410;11.030;2022-09-12T07:40:13;98349.31;;;10.80;100.00
68226;BME280;55045;49.410;11.030;2022-09-12T07:43:36;98362.63;;;11.10;100.00
68226;BME280;55045;49.410;11.030;2022-09-12T07:48:20;98360.94;;;11.64;100.00
68226;BME280;55045;49.410;11.030;2022-09-12T07:51:25;98367.56;;;11.52;100.00
68226;BME280;55045;49.410;11.030;2022-09-12T07:54:28;98375.75;;;11.81;100.00
68226;BME280;55045;49.410;11.030;2022-09-12T07:57:35;98374.81;;;12.34;100.00
68226;BME280;55045;49.410;11.030;2022-09-12T08:00:38;98383.44;;;12.52;100.00
68226;BME280;55045;49.410;11.030;2022-09-12T08:03:45;98374.50;;;12.40;100.00
68226;BME280;55045;49.410;11.030;2022-09-12T08:06:48;98353.09;;;12.84;100.00
68226;BME280;55045;49.410;11.030;2022-09-12T08:09:52;98352.78;;;13.06;100.00
68226;BME280;55045;49.410;11.030;2022-09-12T08:12:56;98346.41;;;12.80;100.00
68226;BME280;55045;49.410;11.030;2022-09-12T08:16:01;98343.22;;;12.90;100.00
68226;BME280;55045;49.410;11.030;2022-09-12T08:19:06;98349.69;;;13.15;100.00
68226;BME280;55045;49.410;11.030;2022-09-12T08:22:09;98337.91;;;13.55;100.00
68226;BME280;55045;49.410;11.030;2022-09-12T08:25:13;98330.59;;;13.92;100.00
68226;BME280;55045;49.410;11.030;2022-09-12T08:28:16;98327.31;;;14.61;100.00
68226;BME280;55045;49.410;11.030;2022-09-12T08:31:21;98329.84;;;14.48;100.00
68226;BME280;55045;49.410;11.030;2022-09-12T08:34:26;98307.22;;;14.04;100.00
68226;BME280;55045;49.410;11.030;2022-09-12T08:37:29;98328.06;;;14.49;100.00
68226;BME280;55045;49.410;11.030;2022-09-12T08:40:41;98320.53;;;14.58;100.00
68226;BME280;55045;49.410;11.030;2022-09-12T08:44:02;98306.56;;;14.45;100.00
68226;BME280;55045;49.410;11.030;2022-09-12T08:47:19;98309.19;;;15.01;100.00
68226;BME280;55045;49.410;11.030;2022-09-12T08:50:25;98307.78;;;15.09;100.00
68226;BME280;55045;49.410;11.030;2022-09-12T08:53:31;98303.22;;;15.13;100.00
68226;BME280;55045;49.410;11.030;2022-09-12T08:56:40;98295.94;;;15.31;100.00
68226;BME280;55045;49.410;11.030;2022-09-12T08:59:47;98290.28;;;16.03;100.00
68226;BME280;55045;49.410;11.030;2022-09-12T09:06:56;98267.66;;;16.02;100.00
68226;BME280;55045;49.410;11.030;2022-09-12T09:10:08;98281.06;;;16.49;100.00
68226;BME280;55045;49.410;11.030;2022-09-12T09:13:26;98284.63;;;16.09;100.00
68226;BME280;55045;49.410;11.030;2022-09-12T09:16:53;98219.94;;;16.24;100.00
68226;BME280;55045;49.410;11.030;2022-09-12T09:20:03;98265.50;;;17.20;100.00
68226;BME280;55045;49.410;11.030;2022-09-12T09:23:11;98267.81;;;16.88;100.00
68226;BME280;55045;49.410;11.030;2022-09-12T09:26:20;98267.94;;;16.74;100.00
68226;BME280;55045;49.410;11.030;2022-09-12T09:29:32;98254.34;;;16.69;100.00
68226;BME280;55045;49.410;11.030;2022-09-12T09:34:20;98260.16;;;17.81;100.00
68226;BME280;55045;49.410;11.030;2022-09-12T09:37:31;98248.91;;;17.44;100.00
68226;BME280;55045;49.410;11.030;2022-09-12T09:40:45;98233.78;;;17.82;100.00
68226;BME280;55045;49.410;11.030;2022-09-12T09:43:55;98225.00;;;18.28;100.00
68226;BME280;55045;49.410;11.030;2022-09-12T09:46:59;98232.16;;;17.58;100.00
68226;BME280;55045;49.410;11.030;2022-09-12T09:50:04;98224.13;;;17.83;100.00
68226;BME280;55045;49.410;11.030;2022-09-12T09:53:11;98203.41;;;17.91;100.00
68226;BME280;55045;49.410;11.030;2022-09-12T09:56:26;98217.34;;;17.92;100.00
68226;BME280;55045;49.410;11.030;2022-09-12T09:59:32;98202.34;;;17.47;100.00
68226;BME280;55045;49.410;11.030;2022-09-12T10:02:35;98195.41;;;18.04;100.00
68226;BME280;55045;49.410;11.030;2022-09-12T10:05:46;98151.88;;;17.90;100.00
68226;BME280;55045;49.410;11.030;2022-09-12T10:08:50;98186.88;;;18.79;100.00
68226;BME280;55045;49.410;11.030;2022-09-12T10:11:54;98187.16;;;17.97;100.00
68226;BME280;55045;49.410;11.030;2022-09-12T10:15:00;98188.13;;;17.85;100.00
68226;BME280;55045;49.410;11.030;2022-09-12T10:18:04;98184.06;;;18.70;100.00
68226;BME280;55045;49.410;11.030;2022-09-12T10:21:14;98179.66;;;19.03;100.00
68226;BME280;55045;49.410;11.030;2022-09-12T10:24:21;98187.41;;;18.50;100.00
68226;BME280;55045;49.410;11.030;2022-09-12T10:27:29;98163.03;;;18.70;100.00
68226;BME280;55045;49.410;11.030;2022-09-12T10:30:33;98173.28;;;18.74;100.00
68226;BME280;55045;49.410;11.030;2022-09-12T10:37:49;98161.84;;;19.27;100.00
68226;BME280;55045;49.410;11.030;2022-09-12T10:40:56;98161.47;;;19.53;100.00
68226;BME280;55045;49.410;11.030;2022-09-12T10:44:05;98153.53;;;18.90;100.00
68226;BME280;55045;49.410;11.030;2022-09-12T10:47:22;98162.03;;;18.83;100.00
68226;BME280;55045;49.410;11.030;2022-09-12T10:50:28;98169.63;;;18.42;100.00
68226;BME280;55045;49.410;11.030;2022-09-12T10:53:39;98144.63;;;18.59;100.00
68226;BME280;55045;49.410;11.030;2022-09-12T10:56:49;98149.31;;;19.20;100.00
68226;BME280;55045;49.410;11.030;2022-09-12T11:00:06;98149.94;;;19.23;100.00
68226;BME280;55045;49.410;11.030;2022-09-12T11:03:15;98140.69;;;19.50;100.00
68226;BME280;55045;49.410;11.030;2022-09-12T11:06:26;98150.06;;;19.84;100.00
68226;BME280;55045;49.410;11.030;2022-09-12T11:09:39;98139.78;;;20.22;100.00
68226;BME280;55045;49.410;11.030;2022-09-12T11:12:52;98144.53;;;19.46;100.00
68226;BME280;55045;49.410;11.030;2022-09-12T11:16:08;98136.81;;;19.96;100.00
68226;BME280;55045;49.410;11.030;2022-09-12T11:19:36;98130.00;;;19.42;100.00
68226;BME280;55045;49.410;11.030;2022-09-12T11:23:02;98132.91;;;18.75;100.00
68226;BME280;55045;49.410;11.030;2022-09-12T11:26:22;98137.34;;;19.48;100.00
68226;BME280;55045;49.410;11.030;2022-09-12T11:29:37;98131.72;;;19.32;100.00
68226;BME280;55045;49.410;11.030;2022-09-12T11:32:59;98140.53;;;19.31;100.00
68226;BME280;55045;49.410;11.030;2022-09-12T11:36:21;98129.47;;;19.27;100.00
68226;BME280;55045;49.410;11.030;2022-09-12T11:39:30;98124.97;;;19.18;100.00
68226;BME280;55045;49.410;11.030;2022-09-12T11:42:38;98131.25;;;19.26;100.00
68226;BME280;55045;49.410;11.030;2022-09-12T11:45:43;98117.47;;;19.55;100.00
68226;BME280;55045;49.410;11.030;2022-09-12T11:48:52;98115.09;;;19.52;100.00
68226;BME280;55045;49.410;11.030;2022-09-12T11:52:01;98118.38;;;19.65;100.00
68226;BME280;55045;49.410;11.030;2022-09-12T11:55:10;98117.31;;;19.77;100.00
68226;BME280;55045;49.410;11.030;2022-09-12T11:58:22;98110.50;;;19.65;100.00
68226;BME280;55045;49.410;11.030;2022-09-12T12:01:30;98103.81;;;19.61;100.00
68226;BME280;55045;49.410;11.030;2022-09-12T12:05:03;98094.44;;;19.47;100.00
68226;BME280;55045;49.410;11.030;2022-09-12T12:08:10;98102.94;;;19.81;100.00
68226;BME280;55045;49.410;11.030;2022-09-12T12:11:26;98078.09;;;19.65;100.00
68226;BME280;55045;49.410;11.030;2022-09-12T12:14:39;98089.44;;;19.65;100.00
68226;BME280;55045;49.410;11.030;2022-09-12T12:17:45;98102.97;;;19.91;100.00
68226;BME280;55045;49.410;11.030;2022-09-12T12:21:19;98097.84;;;19.90;100.00
68226;BME280;55045;49.410;11.030;2022-09-12T12:24:26;98089.34;;;19.76;100.00
68226;BME280;55045;49.410;11.030;2022-09-12T12:27:51;98090.31;;;19.75;100.00
68226;BME280;55045;49.410;11.030;2022-09-12T12:31:00;98083.88;;;19.99;100.00
68226;BME280;55045;49.410;11.030;2022-09-12T12:34:20;98070.03;;;19.97;100.00
68226;BME280;55045;49.410;11.030;2022-09-12T12:37:47;98070.88;;;20.07;100.00
68226;BME280;55045;49.410;11.030;2022-09-12T12:40:52;98026.44;;;19.43;100.00
68226;BME280;55045;49.410;11.030;2022-09-12T12:43:55;98077.72;;;19.79;100.00
68226;BME280;55045;49.410;11.030;2022-09-12T12:47:15;98060.69;;;20.23;100.00
68226;BME280;55045;49.410;11.030;2022-09-12T12:50:21;98053.41;;;19.96;100.00
68226;BME280;55045;49.410;11.030;2022-09-12T12:53:27;98057.06;;;20.14;100.00
68226;BME280;55045;49.410;11.030;2022-09-12T12:56:38;98055.13;;;19.76;100.00
68226;BME280;55045;49.410;11.030;2022-09-12T12:59:45;98050.53;;;20.19;100.00
68226;BME280;55045;49.410;11.030;2022-09-12T13:02:56;98056.91;;;20.16;100.00
68226;BME280;55045;49.410;11.030;2022-09-12T13:06:02;98051.38;;;20.19;100.00
68226;BME280;55045;49.410;11.030;2022-09-12T13:09:08;98044.56;;;20.07;100.00
68226;BME280;55045;49.410;11.030;2022-09-12T13:12:21;98041.25;;;20.05;100.00
68226;BME280;55045;49.410;11.030;2022-09-12T13:15:47;98031.63;;;20.44;100.00
68226;BME280;55045;49.410;11.030;2022-09-12T13:18:53;98027.41;;;20.32;100.00
68226;BME280;55045;49.410;11.030;2022-09-12T13:21:59;98021.03;;;20.15;100.00
68226;BME280;55045;49.410;11.030;2022-09-12T13:25:17;98020.59;;;20.10;100.00
68226;BME280;55045;49.410;11.030;2022-09-12T13:28:21;98009.09;;;20.11;100.00
68226;BME280;55045;49.410;11.030;2022-09-12T13:31:26;98004.78;;;20.10;100.00
68226;BME280;55045;49.410;11.030;2022-09-12T13:34:44;98023.47;;;19.97;100.00
68226;BME280;55045;49.410;11.030;2022-09-12T13:37:57;98023.53;;;20.17;100.00
68226;BME280;55045;49.410;11.030;2022-09-12T13:41:21;98017.44;;;20.16;100.00
68226;BME280;55045;49.410;11.030;2022-09-12T13:44:28;98011.19;;;20.17;100.00
68226;BME280;55045;49.410;11.030;2022-09-12T13:47:35;98015.47;;;20.18;100.00
68226;BME280;55045;49.410;11.030;2022-09-12T13:50:45;98001.66;;;20.35;100.00
68226;BME280;55045;49.410;11.030;2022-09-12T13:53:52;98003.84;;;20.21;100.00
68226;BME280;55045;49.410;11.030;2022-09-12T13:57:00;97982.91;;;20.29;100.00
68226;BME280;55045;49.410;11.030;2022-09-12T14:00:07;97987.50;;;20.36;100.00
68226;BME280;55045;49.410;11.030;2022-09-12T14:03:25;97995.53;;;20.16;100.00
68226;BME280;55045;49.410;11.030;2022-09-12T14:06:49;97987.34;;;20.19;100.00
68226;BME280;55045;49.410;11.030;2022-09-12T14:09:56;97981.78;;;20.12;100.00
68226;BME280;55045;49.410;11.030;2022-09-12T14:13:02;97986.38;;;20.29;100.00
68226;BME280;55045;49.410;11.030;2022-09-12T14:16:09;97981.13;;;20.39;100.00
68226;BME280;55045;49.410;11.030;2022-09-12T14:19:13;97986.72;;;20.46;100.00
68226;BME280;55045;49.410;11.030;2022-09-12T14:22:20;97980.59;;;20.55;100.00
68226;BME280;55045;49.410;11.030;2022-09-12T14:25:27;97974.56;;;20.91;100.00
68226;BME280;55045;49.410;11.030;2022-09-12T14:28:35;97977.84;;;20.47;100.00
68226;BME280;55045;49.410;11.030;2022-09-12T14:31:38;97975.03;;;20.38;100.00
68226;BME280;55045;49.410;11.030;2022-09-12T14:38:30;97963.97;;;20.64;100.00
68226;BME280;55045;49.410;11.030;2022-09-12T14:41:40;97963.06;;;20.83;100.00
68226;BME280;55045;49.410;11.030;2022-09-12T14:44:51;97955.91;;;20.65;100.00
68226;BME280;55045;49.410;11.030;2022-09-12T14:47:57;97959.06;;;20.88;100.00
68226;BME280;55045;49.410;11.030;2022-09-12T14:51:02;97954.16;;;20.93;100.00
68226;BME280;55045;49.410;11.030;2022-09-12T14:57:46;97960.63;;;20.52;100.00
68226;BME280;55045;49.410;11.030;2022-09-12T15:00:57;97949.22;;;20.81;100.00
68226;BME280;55045;49.410;11.030;2022-09-12T15:04:01;97876.75;;;20.28;100.00
68226;BME280;55045;49.410;11.030;2022-09-12T15:07:13;97943.69;;;20.74;100.00
68226;BME280;55045;49.410;11.030;2022-09-12T15:10:20;97945.28;;;20.94;100.00
68226;BME280;55045;49.410;11.030;2022-09-12T15:13:27;97951.00;;;20.90;100.00
68226;BME280;55045;49.410;11.030;2022-09-12T15:16:32;97943.28;;;20.69;100.00
68226;BME280;55045;49.410;11.030;2022-09-12T15:19:36;97944.03;;;20.98;100.00
68226;BME280;55045;49.410;11.030;2022-09-12T15:22:39;97927.56;;;20.87;100.00
68226;BME280;55045;49.410;11.030;2022-09-12T15:25:43;97943.88;;;21.00;100.00
68226;BME280;55045;49.410;11.030;2022-09-12T15:28:48;97931.84;;;20.88;100.00
68226;BME280;55045;49.410;11.030;2022-09-12T15:34:13;97924.13;;;20.77;100.00
68226;BME280;55045;49.410;11.030;2022-09-12T15:37:18;97930.00;;;21.08;100.00
68226;BME280;55045;49.410;11.030;2022-09-12T15:40:22;97928.91;;;21.00;100.00
68226;BME280;55045;49.410;11.030;2022-09-12T15:43:27;97921.81;;;20.64;100.00
68226;BME280;55045;49.410;11.030;2022-09-12T15:46:30;97925.50;;;20.71;100.00
68226;BME280;55045;49.410;11.030;2022-09-12T15:49:35;97919.56;;;20.30;100.00
68226;BME280;55045;49.410;11.030;2022-09-12T15:52:38;97896.16;;;20.47;100.00
68226;BME280;55045;49.410;11.030;2022-09-12T15:55:42;97903.19;;;20.75;100.00
68226;BME280;55045;49.410;11.030;2022-09-12T15:58:47;97909.84;;;20.40;100.00
68226;BME280;55045;49.410;11.030;2022-09-12T16:02:08;97907.06;;;20.42;100.00
68226;BME280;55045;49.410;11.030;2022-09-12T16:05:14;97907.66;;;20.36;100.00
68226;BME280;55045;49.410;11.030;2022-09-12T16:08:18;97912.38;;;20.13;100.00
68226;BME280;55045;49.410;11.030;2022-09-12T16:11:23;97922.16;;;19.63;100.00
68226;BME280;55045;49.410;11.030;2022-09-12T16:14:26;97907.38;;;20.20;100.00
68226;BME280;55045;49.410;11.030;2022-09-12T16:17:29;97915.69;;;19.86;100.00
68226;BME280;55045;49.410;11.030;2022-09-12T16:20:34;97904.84;;;19.70;100.00
68226;BME280;55045;49.410;11.030;2022-09-12T16:23:37;97899.88;;;19.67;100.00
68226;BME280;55045;49.410;11.030;2022-09-12T16:26:41;97906.00;;;20.06;100.00
68226;BME280;55045;49.410;11.030;2022-09-12T16:29:45;97843.28;;;19.22;100.00
68226;BME280;55045;49.410;11.030;2022-09-12T16:32:48;97906.00;;;19.37;100.00
68226;BME280;55045;49.410;11.030;2022-09-12T16:36:01;97898.59;;;19.11;100.00
68226;BME280;55045;49.410;11.030;2022-09-12T16:39:04;97895.81;;;19.13;100.00
68226;BME280;55045;49.410;11.030;2022-09-12T16:42:08;97901.00;;;19.34;100.00
68226;BME280;55045;49.410;11.030;2022-09-12T16:45:11;97874.44;;;19.37;100.00
68226;BME280;55045;49.410;11.030;2022-09-12T16:48:15;97891.44;;;19.23;100.00
68226;BME280;55045;49.410;11.030;2022-09-12T16:54:30;97880.81;;;18.94;100.00
68226;BME280;55045;49.410;11.030;2022-09-12T16:57:33;97858.13;;;18.41;100.00
68226;BME280;55045;49.410;11.030;2022-09-12T17:00:36;97883.16;;;18.66;100.00
68226;BME280;55045;49.410;11.030;2022-09-12T17:03:40;97852.59;;;18.03;100.00
68226;BME280;55045;49.410;11.030;2022-09-12T17:06:43;97872.53;;;17.94;100.00
68226;BME280;55045;49.410;11.030;2022-09-12T17:09:48;97871.59;;;17.95;100.00
68226;BME280;55045;49.410;11.030;2022-09-12T17:16:04;97855.34;;;18.43;100.00
68226;BME280;55045;49.410;11.030;2022-09-12T17:19:11;97879.38;;;17.85;100.00
68226;BME280;55045;49.410;11.030;2022-09-12T17:22:15;97870.75;;;17.95;100.00
68226;BME280;55045;49.410;11.030;2022-09-12T17:25:19;97873.13;;;17.54;100.00
68226;BME280;55045;49.410;11.030;2022-09-12T17:28:23;97873.28;;;18.38;100.00
68226;BME280;55045;49.410;11.030;2022-09-12T17:31:26;97866.72;;;17.91;100.00
68226;BME280;55045;49.410;11.030;2022-09-12T17:34:30;97870.84;;;18.04;100.00
68226;BME280;55045;49.410;11.030;2022-09-12T17:37:33;97857.41;;;18.19;100.00
68226;BME280;55045;49.410;11.030;2022-09-12T17:40:38;97870.34;;;18.10;100.00
68226;BME280;55045;49.410;11.030;2022-09-12T17:44:00;97871.94;;;18.23;100.00
68226;BME280;55045;49.410;11.030;2022-09-12T17:47:04;97884.09;;;18.03;100.00
68226;BME280;55045;49.410;11.030;2022-09-12T17:50:08;97872.16;;;17.55;100.00
68226;BME280;55045;49.410;11.030;2022-09-12T17:53:32;97879.94;;;17.46;100.00
68226;BME280;55045;49.410;11.030;2022-09-12T17:56:37;97890.09;;;17.39;100.00
68226;BME280;55045;49.410;11.030;2022-09-12T17:59:40;97900.25;;;17.21;100.00